Shenanigans — WDE2753 — position and weather

sailwx.info

Track history (hours):
 
Tides and Currents Weather Stations Pressure Air Temp Water Temp Dewpoint Dewpoint Depression Visibility Wind Speed Wind Dir Waves Ship Positions

Shenanigans

Owner: Winton, Gary J, El Segundo, CA. More information available from US FCC via Universal Licensing System and Coast Guard Vessel Documentation Center.

Last reported at 2018-Jun-24 03:20 UTC. Time now 2018-Jun-25 04:24 UTC.
Position N 37°55' W 122°23'.

Length 10 m.

Type: Sailing vessel. MMSI: 367329210.

Date/timePositionNaut miles runAvg speedWind from/ knotsBaromVisibWave heightAir tempDewpointWater temp
2018-Jun-24 03:20N 37°55' W 122°23'0 0.0
2018-Jun-24 02:50N 37°55' W 122°23'0 0.0
2018-Jun-24 02:26N 37°55' W 122°23'0 0.0
2018-Jun-24 01:50N 37°55' W 122°23'0 0.0
2018-Jun-24 01:26N 37°55' W 122°23'0 0.0
2018-Jun-24 00:56N 37°55' W 122°23'0 1.1
2018-Jun-24 00:30N 37°54' W 122°24'1 2.6
2018-Jun-23 23:57N 37°55' W 122°25'3 4.0
2018-Jun-23 23:11N 37°58' W 122°26'1 2.8
2018-Jun-23 22:58N 37°57' W 122°26'2 4.4
2018-Jun-23 22:30N 37°55' W 122°26'2 3.2
2018-Jun-23 22:00N 37°53' W 122°26'3 5.0
2018-Jun-23 21:29N 37°51' W 122°28'2 4.1
2018-Jun-23 20:59N 37°53' W 122°26'2 4.1
2018-Jun-23 20:30N 37°53' W 122°23'0 0.7
2018-Jun-23 19:58N 37°54' W 122°23'0 0.7
2018-Jun-23 19:28N 37°54' W 122°24'1 1.3
2018-Jun-23 18:44N 37°55' W 122°23'0 0.0
2018-Jun-23 18:26N 37°55' W 122°23'0 0.0
2018-Jun-23 17:56N 37°55' W 122°23'0 0.0
2018-Jun-22 04:20N 37°55' W 122°23'0 0.0
2018-Jun-22 02:44N 37°55' W 122°23'0 0.0
2018-Jun-22 02:26N 37°55' W 122°23'0 0.0
2018-Jun-22 01:56N 37°55' W 122°23'0 0.0
2018-Jun-22 01:26N 37°55' W 122°23'0 0.0
2018-Jun-22 00:26N 37°55' W 122°23'0 0.0
2018-Jun-21 23:56N 37°55' W 122°23'0 0.0
2018-Jun-21 23:29N 37°55' W 122°23'0 0.0
2018-Jun-21 22:44N 37°55' W 122°23'0 0.0
2018-Jun-21 22:26N 37°55' W 122°23'0 0.0
2018-Jun-21 21:56N 37°55' W 122°23'0 0.0
2018-Jun-21 21:26N 37°55' W 122°23'0 0.0
2018-Jun-21 20:56N 37°55' W 122°23'0 0.0
2018-Jun-21 20:26N 37°55' W 122°23'0 0.0
2018-Jun-21 19:56N 37°55' W 122°23'0 0.0
2018-Jun-21 19:20N 37°55' W 122°23'0 0.0
2018-Jun-21 18:49N 37°55' W 122°23'0 0.0
2018-Jun-21 18:19N 37°55' W 122°23'0 0.0
2018-Jun-21 17:58N 37°55' W 122°23'0 0.0
2018-Jun-21 03:30N 37°55' W 122°23'0 0.2
2018-Jun-21 03:00N 37°54' W 122°23'2 2.4
2018-Jun-21 02:22N 37°53' W 122°24'0 0.7
2018-Jun-21 02:00N 37°53' W 122°24'1 2.1
2018-Jun-21 01:29N 37°54' W 122°24'0 0.3
2018-Jun-21 00:56N 37°54' W 122°23'0 0.9
2018-Jun-21 00:30N 37°55' W 122°23'0 0.0
2018-Jun-20 23:24N 37°55' W 122°23'0 0.0
2018-Jun-20 22:57N 37°55' W 122°23'  
2018-Jun-17 02:00N 37°55' W 122°23'0 0.0
2018-Jun-16 21:18N 37°55' W 122°23'0 0.0
2018-Jun-16 21:00N 37°55' W 122°23'0 0.0
2018-Jun-16 20:21N 37°55' W 122°23'0 0.0
2018-Jun-16 01:24N 37°55' W 122°23'0 0.0
2018-Jun-16 00:03N 37°55' W 122°23'0 0.0
2018-Jun-15 22:18N 37°55' W 122°23'0 0.0
2018-Jun-15 21:51N 37°55' W 122°23'0 0.0
2018-Jun-15 21:30N 37°55' W 122°23'0 0.0
2018-Jun-15 18:45N 37°55' W 122°23'  
Track history (hours):
 
Tides and Currents Weather Stations Pressure Air Temp Water Temp Dewpoint Dewpoint Depression Visibility Wind Speed Wind Dir Waves Ship Positions

Shenanigans

Owner: Winton, Gary J, El Segundo, CA. More information available from US FCC via Universal Licensing System and Coast Guard Vessel Documentation Center.

Last reported at 2018-Jun-24 03:20 UTC. Time now 2018-Jun-25 04:24 UTC.
Position N 37°55' W 122°23'.

Length 10 m.

Type: Sailing vessel. MMSI: 367329210.

Date/timePositionNaut miles runAvg speedWind from/ knotsBaromVisibWave heightAir tempDewpointWater temp
2018-Jun-24 03:20N 37°55' W 122°23'0 0.0
2018-Jun-24 02:50N 37°55' W 122°23'0 0.0
2018-Jun-24 02:26N 37°55' W 122°23'0 0.0
2018-Jun-24 01:50N 37°55' W 122°23'0 0.0
2018-Jun-24 01:26N 37°55' W 122°23'0 0.0
2018-Jun-24 00:56N 37°55' W 122°23'0 1.1
2018-Jun-24 00:30N 37°54' W 122°24'1 2.6
2018-Jun-23 23:57N 37°55' W 122°25'3 4.0
2018-Jun-23 23:11N 37°58' W 122°26'1 2.8
2018-Jun-23 22:58N 37°57' W 122°26'2 4.4
2018-Jun-23 22:30N 37°55' W 122°26'2 3.2
2018-Jun-23 22:00N 37°53' W 122°26'3 5.0
2018-Jun-23 21:29N 37°51' W 122°28'2 4.1
2018-Jun-23 20:59N 37°53' W 122°26'2 4.1
2018-Jun-23 20:30N 37°53' W 122°23'0 0.7
2018-Jun-23 19:58N 37°54' W 122°23'0 0.7
2018-Jun-23 19:28N 37°54' W 122°24'1 1.3
2018-Jun-23 18:44N 37°55' W 122°23'0 0.0
2018-Jun-23 18:26N 37°55' W 122°23'0 0.0
2018-Jun-23 17:56N 37°55' W 122°23'0 0.0
2018-Jun-22 04:20N 37°55' W 122°23'0 0.0
2018-Jun-22 02:44N 37°55' W 122°23'0 0.0
2018-Jun-22 02:26N 37°55' W 122°23'0 0.0
2018-Jun-22 01:56N 37°55' W 122°23'0 0.0
2018-Jun-22 01:26N 37°55' W 122°23'0 0.0
2018-Jun-22 00:26N 37°55' W 122°23'0 0.0
2018-Jun-21 23:56N 37°55' W 122°23'0 0.0
2018-Jun-21 23:29N 37°55' W 122°23'0 0.0
2018-Jun-21 22:44N 37°55' W 122°23'0 0.0
2018-Jun-21 22:26N 37°55' W 122°23'0 0.0
2018-Jun-21 21:56N 37°55' W 122°23'0 0.0
2018-Jun-21 21:26N 37°55' W 122°23'0 0.0
2018-Jun-21 20:56N 37°55' W 122°23'0 0.0
2018-Jun-21 20:26N 37°55' W 122°23'0 0.0
2018-Jun-21 19:56N 37°55' W 122°23'0 0.0
2018-Jun-21 19:20N 37°55' W 122°23'0 0.0
2018-Jun-21 18:49N 37°55' W 122°23'0 0.0
2018-Jun-21 18:19N 37°55' W 122°23'0 0.0
2018-Jun-21 17:58N 37°55' W 122°23'0 0.0
2018-Jun-21 03:30N 37°55' W 122°23'0 0.2
2018-Jun-21 03:00N 37°54' W 122°23'2 2.4
2018-Jun-21 02:22N 37°53' W 122°24'0 0.7
2018-Jun-21 02:00N 37°53' W 122°24'1 2.1
2018-Jun-21 01:29N 37°54' W 122°24'0 0.3
2018-Jun-21 00:56N 37°54' W 122°23'0 0.9
2018-Jun-21 00:30N 37°55' W 122°23'0 0.0
2018-Jun-20 23:24N 37°55' W 122°23'0 0.0
2018-Jun-20 22:57N 37°55' W 122°23'  
2018-Jun-17 02:00N 37°55' W 122°23'0 0.0
2018-Jun-16 21:18N 37°55' W 122°23'0 0.0
2018-Jun-16 21:00N 37°55' W 122°23'0 0.0
2018-Jun-16 20:21N 37°55' W 122°23'0 0.0
2018-Jun-16 01:24N 37°55' W 122°23'0 0.0
2018-Jun-16 00:03N 37°55' W 122°23'0 0.0
2018-Jun-15 22:18N 37°55' W 122°23'0 0.0
2018-Jun-15 21:51N 37°55' W 122°23'0 0.0
2018-Jun-15 21:30N 37°55' W 122°23'0 0.0
2018-Jun-15 18:45N 37°55' W 122°23'  

Dump ship's entire track history